Time;durP1;ratioP1;P1;durP2;ratioP2;P2;SDS_P1;SDS_P2;PMS_P1;PMS_P2;Temp;Humidity;BMP_temperature;BMP_pressure;BME280_temperature;BME280_humidity;BME280_pressure;Samples;Min_cycle;Max_cycle;Signal;HPM_P1;HPM_P2
2021/12/08 00:02:52;;;;;;;1.90;1.00;;;;;;;;;;20914619;28;20107;-66
2021/12/08 00:13:01;;;;;;;3.30;0.95;;;;;;;;;;20913671;28;20049;-70
2021/12/08 00:23:04;;;;;;;1.05;0.57;;;;;;;;;;20913809;28;20057;-66
2021/12/08 00:33:07;;;;;;;0.70;0.55;;;;;;;;;;20912464;28;20049;-71
2021/12/08 00:43:10;;;;;;;2.05;0.60;;;;;;;;;;20912273;28;20055;-69
2021/12/08 00:53:12;;;;;;;0.98;0.70;;;;;;;;;;20911818;28;20057;-69
2021/12/08 01:03:16;;;;;;;1.92;0.70;;;;;;;;;;20912173;28;20049;-72
2021/12/08 01:13:18;;;;;;;9.32;2.25;;;;;;;;;;20912902;28;20546;-59
2021/12/08 01:23:21;;;;;;;2.55;0.90;;;;;;;;;;20926408;28;20041;-67
2021/12/08 01:33:24;;;;;;;0.80;0.60;;;;;;;;;;20963932;28;20041;-64
2021/12/08 01:43:29;;;;;;;1.42;0.80;;;;;;;;;;20954548;28;20057;-70
2021/12/08 01:53:32;;;;;;;2.43;1.00;;;;;;;;;;20938907;28;20057;-71
2021/12/08 02:03:35;;;;;;;2.40;1.00;;;;;;;;;;20923426;28;20088;-71
2021/12/08 02:13:39;;;;;;;3.53;0.93;;;;;;;;;;20924731;28;20049;-67
2021/12/08 02:23:43;;;;;;;2.70;1.30;;;;;;;;;;20920335;28;20057;-63
2021/12/08 02:54:37;;;;;;;4.95;1.20;;;;;;;;;;20918945;28;20053;-70
2021/12/08 03:04:39;;;;;;;7.03;1.50;;;;;;;;;;20920288;28;20383;-69
2021/12/08 03:14:42;;;;;;;5.32;1.10;;;;;;;;;;20918295;28;20045;-70
2021/12/08 03:24:48;;;;;;;4.43;1.00;;;;;;;;;;20917976;28;20048;-70
2021/12/08 03:34:52;;;;;;;4.90;1.20;;;;;;;;;;20917605;28;20506;-71
2021/12/08 03:44:59;;;;;;;5.80;1.55;;;;;;;;;;20916299;28;20115;-70
2021/12/08 03:55:21;;;;;;;7.10;1.25;;;;;;;;;;20915340;28;20053;-70
2021/12/08 04:15:50;;;;;;;4.38;1.23;;;;;;;;;;20913510;28;20051;-69
2021/12/08 04:25:56;;;;;;;2.43;1.73;;;;;;;;;;20913031;28;20079;-70
2021/12/08 04:36:05;;;;;;;3.83;1.48;;;;;;;;;;20912455;28;20053;-70
2021/12/08 05:07:00;;;;;;;1.63;0.90;;;;;;;;;;20927753;28;20410;-55
2021/12/08 05:17:16;;;;;;;3.00;0.75;;;;;;;;;;20927591;28;20045;-54
2021/12/08 05:27:33;;;;;;;1.23;0.60;;;;;;;;;;20925783;28;20401;-68
2021/12/08 05:37:36;;;;;;;1.73;0.60;;;;;;;;;;20925503;28;20149;-54
2021/12/08 05:47:40;;;;;;;1.65;0.52;;;;;;;;;;20924340;28;20064;-59
2021/12/08 05:57:43;;;;;;;1.60;0.60;;;;;;;;;;20924164;28;20081;-55
2021/12/08 06:07:49;;;;;;;1.10;0.50;;;;;;;;;;20922000;28;20099;-55
2021/12/08 06:17:53;;;;;;;1.40;0.73;;;;;;;;;;20922297;28;20071;-53
2021/12/08 06:27:55;;;;;;;1.05;0.60;;;;;;;;;;20921514;28;20045;-56
2021/12/08 06:37:58;;;;;;;2.58;0.80;;;;;;;;;;20920316;28;20061;-55
2021/12/08 06:48:04;;;;;;;1.83;0.60;;;;;;;;;;20923109;28;20132;-54
2021/12/08 06:58:10;;;;;;;1.63;0.70;;;;;;;;;;20944278;28;20052;-67
2021/12/08 07:08:12;;;;;;;4.00;1.10;;;;;;;;;;20919147;28;20506;-62
2021/12/08 07:18:17;;;;;;;1.83;0.70;;;;;;;;;;20917540;28;20045;-64
2021/12/08 07:28:22;;;;;;;3.40;1.10;;;;;;;;;;20916751;28;20049;-55
2021/12/08 07:38:26;;;;;;;6.05;1.15;;;;;;;;;;20915515;28;20418;-55
2021/12/08 07:48:36;;;;;;;0.90;0.45;;;;;;;;;;20915347;28;20418;-53
2021/12/08 07:58:43;;;;;;;1.00;0.50;;;;;;;;;;20914220;28;20041;-67
2021/12/08 08:08:50;;;;;;;0.70;0.47;;;;;;;;;;20914202;28;20056;-61
2021/12/08 08:19:06;;;;;;;1.25;0.63;;;;;;;;;;20913118;28;20053;-54
2021/12/08 08:29:28;;;;;;;1.88;0.70;;;;;;;;;;20914052;28;20414;-54
2021/12/08 08:39:53;;;;;;;1.52;0.77;;;;;;;;;;20930988;28;20075;-55
2021/12/08 08:50:17;;;;;;;1.42;0.60;;;;;;;;;;20929928;28;20482;-60
2021/12/08 09:00:52;;;;;;;1.77;0.70;;;;;;;;;;20928383;28;20049;-59
2021/12/08 09:11:06;;;;;;;1.63;0.90;;;;;;;;;;20927871;28;20045;-54
2021/12/08 09:21:42;;;;;;;3.43;1.07;;;;;;;;;;20926494;28;20053;-54
2021/12/08 09:31:54;;;;;;;;;;;;;;;;;;20926331;28;20126;-56
2021/12/08 09:42:11;;;;;;;1.80;0.85;;;;;;;;;;20924658;28;20355;-55
2021/12/08 09:52:20;;;;;;;2.25;0.70;;;;;;;;;;20924188;28;20060;-56
2021/12/08 10:02:33;;;;;;;2.75;0.80;;;;;;;;;;20923868;28;20063;-64
2021/12/08 10:12:39;;;;;;;2.63;0.60;;;;;;;;;;20922353;28;20179;-71
2021/12/08 10:22:46;;;;;;;2.33;0.73;;;;;;;;;;20921293;28;20140;-70
2021/12/08 10:32:49;;;;;;;4.63;1.00;;;;;;;;;;20920517;28;20049;-66
2021/12/08 10:42:58;;;;;;;5.88;1.25;;;;;;;;;;20919927;28;20091;-62
2021/12/08 11:03:36;;;;;;;2.72;1.00;;;;;;;;;;20919001;28;20483;-62
2021/12/08 11:13:45;;;;;;;2.83;1.17;;;;;;;;;;20918202;28;20056;-69
2021/12/08 11:23:51;;;;;;;;;;;;;;;;;;20917539;28;20053;-69
2021/12/08 11:34:00;;;;;;;2.40;0.80;;;;;;;;;;20916976;28;19932;-71
2021/12/08 11:44:25;;;;;;;3.20;1.20;;;;;;;;;;20916770;28;20085;-65
2021/12/08 11:54:34;;;;;;;2.00;0.80;;;;;;;;;;20914065;28;20484;-61
2021/12/08 12:04:39;;;;;;;2.35;1.02;;;;;;;;;;20914576;28;20137;-68
2021/12/08 12:14:43;;;;;;;1.73;0.82;;;;;;;;;;20913414;28;20059;-56
2021/12/08 12:24:53;;;;;;;4.55;1.75;;;;;;;;;;20912510;28;20080;-55
2021/12/08 12:35:18;;;;;;;1.90;0.73;;;;;;;;;;20912145;28;20102;-57
2021/12/08 12:45:24;;;;;;;3.42;0.50;;;;;;;;;;20911804;28;20057;-53
2021/12/08 12:55:35;;;;;;;1.63;0.87;;;;;;;;;;20912076;28;20048;-55
2021/12/08 13:05:45;;;;;;;3.50;1.73;;;;;;;;;;20911875;28;20048;-56
2021/12/08 13:15:51;;;;;;;2.13;0.60;;;;;;;;;;20912170;28;20056;-55
2021/12/08 13:36:18;;;;;;;2.50;1.30;;;;;;;;;;20925697;28;20070;-58
2021/12/08 13:46:40;;;;;;;1.77;1.00;;;;;;;;;;20925566;28;20056;-70
2021/12/08 13:56:45;;;;;;;2.00;1.30;;;;;;;;;;20924388;28;20052;-66
2021/12/08 14:06:49;;;;;;;9.98;5.55;;;;;;;;;;20923281;28;20110;-70
2021/12/08 14:16:52;;;;;;;3.50;1.63;;;;;;;;;;20922752;28;20143;-56
2021/12/08 14:26:57;;;;;;;4.27;1.07;;;;;;;;;;20920837;28;20102;-73
2021/12/08 14:37:02;;;;;;;3.53;1.05;;;;;;;;;;20921275;28;20041;-59
2021/12/08 14:47:10;;;;;;;4.00;1.88;;;;;;;;;;20919662;28;20142;-69
2021/12/08 14:57:20;;;;;;;13.65;6.90;;;;;;;;;;20918408;28;20049;-63
2021/12/08 15:07:25;;;;;;;2.70;1.20;;;;;;;;;;20919753;28;20049;-69
2021/12/08 15:17:30;;;;;;;2.58;1.30;;;;;;;;;;20916280;28;20056;-72
2021/12/08 15:27:36;;;;;;;3.28;1.40;;;;;;;;;;20916050;28;20153;-70
2021/12/08 15:37:50;;;;;;;3.28;1.63;;;;;;;;;;20915728;28;20106;-72
2021/12/08 15:47:55;;;;;;;15.30;8.65;;;;;;;;;;20914907;28;20059;-71
2021/12/08 15:58:03;;;;;;;6.78;2.47;;;;;;;;;;20914734;28;20190;-54
2021/12/08 16:08:09;;;;;;;9.40;4.40;;;;;;;;;;20913983;28;20051;-64
2021/12/08 16:18:12;;;;;;;10.68;6.60;;;;;;;;;;20914595;28;20518;-71
2021/12/08 16:28:19;;;;;;;;;;;;;;;;;;20914082;28;20102;-71
2021/12/08 16:38:23;;;;;;;1.27;0.70;;;;;;;;;;20913487;28;20337;-60
2021/12/08 16:48:29;;;;;;;2.97;1.08;;;;;;;;;;20912774;28;20053;-71
2021/12/08 16:58:32;;;;;;;2.85;1.00;;;;;;;;;;20926510;28;20553;-55
2021/12/08 17:08:34;;;;;;;2.78;1.15;;;;;;;;;;20927663;28;20053;-55
2021/12/08 17:18:40;;;;;;;3.17;1.52;;;;;;;;;;20927055;28;20163;-60
2021/12/08 17:28:44;;;;;;;3.25;1.60;;;;;;;;;;20926187;28;20110;-58
2021/12/08 17:38:47;;;;;;;3.00;1.60;;;;;;;;;;20924932;28;20056;-57
2021/12/08 17:48:49;;;;;;;2.67;1.40;;;;;;;;;;20924328;28;20068;-64
2021/12/08 17:58:52;;;;;;;3.22;1.50;;;;;;;;;;20923412;28;20056;-69
2021/12/08 18:08:54;;;;;;;4.50;2.00;;;;;;;;;;20921399;28;20128;-59
2021/12/08 18:18:58;;;;;;;6.75;2.60;;;;;;;;;;20922118;28;20049;-67
2021/12/08 18:29:01;;;;;;;3.83;1.80;;;;;;;;;;20921552;28;20053;-56
2021/12/08 18:39:06;;;;;;;2.90;1.30;;;;;;;;;;20920034;28;20056;-59
2021/12/08 18:49:09;;;;;;;3.20;1.42;;;;;;;;;;20919371;28;20510;-55
2021/12/08 18:59:12;;;;;;;4.78;1.52;;;;;;;;;;20919593;28;20132;-56
2021/12/08 19:09:14;;;;;;;2.72;1.30;;;;;;;;;;20919298;28;20045;-56
2021/12/08 19:19:18;;;;;;;5.97;1.65;;;;;;;;;;20917002;28;20056;-55
2021/12/08 19:29:20;;;;;;;4.65;1.50;;;;;;;;;;20917526;28;20052;-62
2021/12/08 19:39:24;;;;;;;2.70;1.45;;;;;;;;;;20915782;28;20168;-72
2021/12/08 19:49:26;;;;;;;2.85;1.50;;;;;;;;;;20912958;28;20065;-61
2021/12/08 19:59:29;;;;;;;4.70;2.25;;;;;;;;;;20914489;28;20063;-55
2021/12/08 20:09:32;;;;;;;5.00;2.50;;;;;;;;;;20915706;28;20483;-71
2021/12/08 20:19:34;;;;;;;7.30;2.72;;;;;;;;;;20914088;28;20044;-59
2021/12/08 20:29:37;;;;;;;5.20;2.33;;;;;;;;;;20913494;28;20060;-57
2021/12/08 20:39:40;;;;;;;5.43;2.28;;;;;;;;;;20912874;28;20090;-56
2021/12/08 20:49:43;;;;;;;4.25;2.10;;;;;;;;;;20911742;28;20053;-60
2021/12/08 20:59:58;;;;;;;4.60;2.00;;;;;;;;;;20911291;28;20052;-65
2021/12/08 21:10:01;;;;;;;8.23;2.67;;;;;;;;;;20910822;28;20131;-64
2021/12/08 21:20:04;;;;;;;4.40;1.63;;;;;;;;;;20910422;28;20106;-69
2021/12/08 21:30:07;;;;;;;3.08;1.20;;;;;;;;;;20910897;28;20045;-58
2021/12/08 21:40:10;;;;;;;3.75;1.15;;;;;;;;;;20916725;28;20075;-67
2021/12/08 21:50:14;;;;;;;3.42;2.22;;;;;;;;;;20925531;28;20048;-64
2021/12/08 22:00:20;;;;;;;2.72;1.00;;;;;;;;;;20924918;28;20490;-68
2021/12/08 22:10:23;;;;;;;2.10;1.00;;;;;;;;;;20923849;28;20406;-55
2021/12/08 22:20:25;;;;;;;7.18;5.15;;;;;;;;;;20922301;28;20566;-60
2021/12/08 22:30:30;;;;;;;3.45;1.50;;;;;;;;;;20921389;28;20099;-56
2021/12/08 22:40:33;;;;;;;2.35;0.70;;;;;;;;;;20922247;28;20056;-71
2021/12/08 22:50:40;;;;;;;3.25;1.67;;;;;;;;;;20919283;28;20053;-69
2021/12/08 23:00:42;;;;;;;1.67;0.90;;;;;;;;;;20919718;28;20415;-63
2021/12/08 23:10:45;;;;;;;1.45;0.80;;;;;;;;;;20923764;28;20072;-74
2021/12/08 23:20:59;;;;;;;4.30;0.85;;;;;;;;;;20918256;28;20053;-68
2021/12/08 23:31:01;;;;;;;1.20;0.68;;;;;;;;;;20917534;28;20457;-72
2021/12/08 23:41:05;;;;;;;2.97;0.90;;;;;;;;;;20916171;28;20103;-64
2021/12/08 23:51:08;;;;;;;2.38;0.90;;;;;;;;;;20916401;28;20060;-55
